Time;durP1;ratioP1;P1;durP2;ratioP2;P2;SDS_P1;SDS_P2;PMS_P1;PMS_P2;Temp;Humidity;BMP_temperature;BMP_pressure;BME280_temperature;BME280_humidity;BME280_pressure;Samples;Min_cycle;Max_cycle;Signal;HPM_P1;HPM_P2
2022/06/21 00:00:05;;;;;;;10.90;9.82;;;;;;;;;;521637;28;1338;-82
2022/06/21 00:00:23;;;;;;;11.48;10.32;;;;;;;;;;524673;28;1624;-82
2022/06/21 00:00:39;;;;;;;11.55;10.23;;;;;;;;;;523128;28;1566;-83
2022/06/21 00:00:57;;;;;;;12.17;10.13;;;;;;;;;;520187;28;1278;-82
2022/06/21 00:01:16;;;;;;;11.73;10.07;;;;;;;;;;520847;28;1602;-83
2022/06/21 00:01:31;;;;;;;12.07;10.27;;;;;;;;;;520533;28;1465;-82
2022/06/21 00:01:47;;;;;;;13.32;10.13;;;;;;;;;;519409;28;1496;-83
2022/06/21 00:02:03;;;;;;;13.68;10.23;;;;;;;;;;520515;28;1454;-82
2022/06/21 00:02:19;;;;;;;12.03;10.63;;;;;;;;;;521223;28;1546;-82
2022/06/21 00:02:34;;;;;;;11.50;10.40;;;;;;;;;;519920;28;1489;-82
2022/06/21 00:02:56;;;;;;;11.57;10.38;;;;;;;;;;521521;28;1427;-82
2022/06/21 00:03:17;;;;;;;13.23;10.40;;;;;;;;;;523672;28;1623;-82
2022/06/21 00:03:32;;;;;;;13.65;10.52;;;;;;;;;;523171;28;1606;-82
2022/06/21 00:03:49;;;;;;;13.43;10.40;;;;;;;;;;523771;28;1385;-82
2022/06/21 00:04:04;;;;;;;13.60;10.48;;;;;;;;;;522225;28;1611;-82
2022/06/21 00:04:20;;;;;;;13.60;10.83;;;;;;;;;;521672;28;1288;-82
2022/06/21 00:04:36;;;;;;;13.00;10.80;;;;;;;;;;522266;28;1800;-82
2022/06/21 00:04:53;;;;;;;12.52;10.70;;;;;;;;;;522589;28;1641;-82
2022/06/21 00:05:25;;;;;;;12.27;10.95;;;;;;;;;;522276;28;915;-82
2022/06/21 00:05:43;;;;;;;11.60;10.50;;;;;;;;;;525301;28;1454;-82
2022/06/21 00:05:58;;;;;;;14.18;10.50;;;;;;;;;;522900;28;1341;-82
2022/06/21 00:06:18;;;;;;;16.03;10.50;;;;;;;;;;522709;28;1373;-83
2022/06/21 00:06:34;;;;;;;14.85;10.75;;;;;;;;;;520712;28;1716;-82
2022/06/21 00:06:49;;;;;;;13.50;10.80;;;;;;;;;;520186;28;1420;-82
2022/06/21 00:07:09;;;;;;;12.03;10.70;;;;;;;;;;521382;28;1632;-82
2022/06/21 00:07:26;;;;;;;11.90;10.75;;;;;;;;;;519036;28;1565;-82
2022/06/21 00:07:42;;;;;;;13.25;11.07;;;;;;;;;;520298;28;1496;-82
2022/06/21 00:07:57;;;;;;;13.65;10.68;;;;;;;;;;522296;28;1371;-82
2022/06/21 00:08:19;;;;;;;13.00;10.50;;;;;;;;;;522037;28;1345;-82
2022/06/21 00:08:36;;;;;;;14.07;11.27;;;;;;;;;;519375;28;1534;-82
2022/06/21 00:08:52;;;;;;;13.30;11.40;;;;;;;;;;520641;28;926;-82
2022/06/21 00:09:11;;;;;;;12.90;11.20;;;;;;;;;;523894;28;1456;-82
2022/06/21 00:09:26;;;;;;;13.77;11.73;;;;;;;;;;522469;28;1376;-82
2022/06/21 00:09:42;;;;;;;13.57;11.47;;;;;;;;;;520302;28;1768;-82
2022/06/21 00:09:59;;;;;;;15.55;11.82;;;;;;;;;;522899;28;1715;-82
2022/06/21 00:10:17;;;;;;;14.40;12.27;;;;;;;;;;524168;28;1519;-82
2022/06/21 00:10:34;;;;;;;15.07;12.18;;;;;;;;;;523304;28;1368;-82
2022/06/21 00:10:51;;;;;;;14.40;12.10;;;;;;;;;;525822;28;871;-82
2022/06/21 00:11:24;;;;;;;14.15;12.23;;;;;;;;;;522452;28;1484;-82
2022/06/21 00:11:41;;;;;;;13.97;12.20;;;;;;;;;;525149;28;1759;-82
2022/06/21 00:11:56;;;;;;;14.30;12.43;;;;;;;;;;524178;28;1531;-82
2022/06/21 00:12:12;;;;;;;14.30;12.80;;;;;;;;;;524484;28;1365;-82
2022/06/21 00:12:28;;;;;;;13.87;12.47;;;;;;;;;;523187;28;1457;-82
2022/06/21 00:12:45;;;;;;;13.85;12.40;;;;;;;;;;524171;28;1570;-82
2022/06/21 00:13:08;;;;;;;14.77;12.30;;;;;;;;;;525881;28;1543;-82
2022/06/21 00:13:28;;;;;;;14.25;12.75;;;;;;;;;;524844;28;1527;-82
2022/06/21 00:13:43;;;;;;;14.45;12.95;;;;;;;;;;526504;28;1635;-82
2022/06/21 00:13:59;;;;;;;14.40;12.80;;;;;;;;;;528602;28;808;-82
2022/06/21 00:14:15;;;;;;;16.00;13.25;;;;;;;;;;527560;28;1378;-82
2022/06/21 00:14:30;;;;;;;15.32;13.68;;;;;;;;;;527999;28;1380;-82
2022/06/21 00:14:46;;;;;;;14.37;13.00;;;;;;;;;;527643;28;1340;-82
2022/06/21 00:15:01;;;;;;;14.20;12.60;;;;;;;;;;527288;28;1527;-82
2022/06/21 00:15:18;;;;;;;14.57;12.90;;;;;;;;;;525547;28;1486;-82
2022/06/21 00:15:33;;;;;;;14.15;12.70;;;;;;;;;;525522;28;1824;-82
2022/06/21 00:15:53;;;;;;;14.20;12.60;;;;;;;;;;524118;28;1392;-82
2022/06/21 00:16:12;;;;;;;14.48;12.95;;;;;;;;;;523071;28;1481;-82
2022/06/21 00:16:30;;;;;;;15.05;12.70;;;;;;;;;;523008;28;979;-82
2022/06/21 00:16:46;;;;;;;15.00;12.90;;;;;;;;;;520190;28;1650;-82
2022/06/21 00:17:02;;;;;;;15.45;13.00;;;;;;;;;;520287;28;2019;-82
2022/06/21 00:17:21;;;;;;;14.82;12.38;;;;;;;;;;519878;28;1376;-82
2022/06/21 00:17:40;;;;;;;13.30;11.90;;;;;;;;;;520292;28;1357;-82
2022/06/21 00:17:55;;;;;;;14.00;12.60;;;;;;;;;;520112;28;1580;-82
2022/06/21 00:18:13;;;;;;;14.48;12.98;;;;;;;;;;522231;28;1176;-82
2022/06/21 00:18:31;;;;;;;14.57;13.02;;;;;;;;;;520081;28;1908;-82
2022/06/21 00:18:47;;;;;;;14.10;12.50;;;;;;;;;;522538;28;1548;-82
2022/06/21 00:19:04;;;;;;;13.65;12.05;;;;;;;;;;524351;28;1580;-82
2022/06/21 00:19:23;;;;;;;14.80;12.37;;;;;;;;;;528675;28;891;-82
2022/06/21 00:19:41;;;;;;;14.05;12.52;;;;;;;;;;527902;28;955;-82
2022/06/21 00:19:56;;;;;;;13.70;12.40;;;;;;;;;;528163;28;946;-82
2022/06/21 00:20:20;;;;;;;14.07;12.37;;;;;;;;;;530867;27;990;-82
2022/06/21 00:20:36;;;;;;;14.35;12.85;;;;;;;;;;527221;28;1736;-82
2022/06/21 00:20:52;;;;;;;14.03;12.53;;;;;;;;;;526579;28;1547;-82
2022/06/21 00:21:15;;;;;;;14.27;12.43;;;;;;;;;;527528;28;1551;-82
2022/06/21 00:21:34;;;;;;;14.15;12.65;;;;;;;;;;524667;28;1494;-82
2022/06/21 00:21:50;;;;;;;15.00;12.63;;;;;;;;;;521622;28;1445;-82
2022/06/21 00:22:08;;;;;;;17.05;13.25;;;;;;;;;;523528;28;1514;-82
2022/06/21 00:22:23;;;;;;;16.55;13.35;;;;;;;;;;520783;28;1325;-82
2022/06/21 00:22:39;;;;;;;15.10;13.32;;;;;;;;;;522771;28;1306;-82
2022/06/21 00:22:55;;;;;;;15.13;13.53;;;;;;;;;;522000;28;1294;-82
2022/06/21 00:23:15;;;;;;;15.20;13.40;;;;;;;;;;523769;28;1179;-82
2022/06/21 00:23:32;;;;;;;14.82;13.20;;;;;;;;;;523047;28;1547;-82
2022/06/21 00:23:50;;;;;;;14.90;13.30;;;;;;;;;;524505;28;1160;-82
2022/06/21 00:24:05;;;;;;;15.25;13.75;;;;;;;;;;524671;28;1732;-81
2022/06/21 00:24:21;;;;;;;15.13;13.57;;;;;;;;;;526481;28;1491;-82
2022/06/21 00:24:36;;;;;;;14.23;12.77;;;;;;;;;;527151;28;1321;-82
2022/06/21 00:24:52;;;;;;;14.38;12.90;;;;;;;;;;529069;27;1644;-83
2022/06/21 00:25:26;;;;;;;14.57;13.00;;;;;;;;;;530356;27;879;-82
2022/06/21 00:25:42;;;;;;;14.30;12.90;;;;;;;;;;527255;28;1797;-82
2022/06/21 00:25:58;;;;;;;14.95;13.45;;;;;;;;;;527802;28;1488;-81
2022/06/21 00:26:15;;;;;;;15.27;13.43;;;;;;;;;;525910;28;1321;-83
2022/06/21 00:26:31;;;;;;;14.98;13.20;;;;;;;;;;524734;28;1667;-82
2022/06/21 00:26:46;;;;;;;14.98;13.40;;;;;;;;;;525990;28;831;-83
2022/06/21 00:27:02;;;;;;;14.90;13.30;;;;;;;;;;524011;28;1555;-82
2022/06/21 00:27:21;;;;;;;14.98;13.18;;;;;;;;;;523761;28;1497;-82
2022/06/21 00:27:37;;;;;;;15.48;13.13;;;;;;;;;;523360;28;861;-82
2022/06/21 00:27:54;;;;;;;16.58;13.55;;;;;;;;;;523718;28;1238;-83
2022/06/21 00:28:10;;;;;;;15.60;13.63;;;;;;;;;;524842;28;859;-82
2022/06/21 00:28:26;;;;;;;14.97;13.37;;;;;;;;;;525051;28;1492;-83
2022/06/21 00:28:42;;;;;;;14.63;13.10;;;;;;;;;;524881;28;1877;-83
2022/06/21 00:28:58;;;;;;;14.73;13.23;;;;;;;;;;526377;28;1566;-83
2022/06/21 00:29:14;;;;;;;14.82;13.15;;;;;;;;;;525649;28;1478;-82
2022/06/21 00:29:29;;;;;;;14.95;12.70;;;;;;;;;;523801;28;1661;-82
2022/06/21 00:29:45;;;;;;;14.70;13.00;;;;;;;;;;525106;28;1361;-82
2022/06/21 00:30:00;;;;;;;14.90;13.30;;;;;;;;;;522505;28;1543;-82
2022/06/21 00:30:16;;;;;;;14.65;13.15;;;;;;;;;;523130;28;1753;-83
2022/06/21 00:30:32;;;;;;;15.10;13.60;;;;;;;;;;523140;28;1927;-82
2022/06/21 00:30:50;;;;;;;15.40;13.80;;;;;;;;;;522504;28;1299;-82
2022/06/21 00:31:15;;;;;;;16.20;14.00;;;;;;;;;;521522;28;1307;-82
2022/06/21 00:31:34;;;;;;;14.82;13.32;;;;;;;;;;523904;28;1534;-82
2022/06/21 00:31:49;;;;;;;15.00;13.50;;;;;;;;;;523027;28;1564;-82
2022/06/21 00:32:05;;;;;;;14.87;13.23;;;;;;;;;;522468;28;1564;-82
2022/06/21 00:32:21;;;;;;;14.60;13.00;;;;;;;;;;524676;28;1528;-82
2022/06/21 00:32:36;;;;;;;;;;;;;;;;;;523493;28;1393;-83
2022/06/21 00:32:54;;;;;;;14.20;12.70;;;;;;;;;;520904;28;5053;-82
2022/06/21 00:33:12;;;;;;;14.27;12.88;;;;;;;;;;521790;28;1019;-82
2022/06/21 00:33:29;;;;;;;15.13;13.63;;;;;;;;;;523699;28;1047;-82
2022/06/21 00:33:45;;;;;;;15.98;13.43;;;;;;;;;;522078;28;1440;-82
2022/06/21 00:34:14;;;;;;;16.35;13.15;;;;;;;;;;523698;28;1443;-82
2022/06/21 00:34:30;;;;;;;14.07;12.65;;;;;;;;;;526415;28;1309;-82
2022/06/21 00:34:46;;;;;;;15.18;12.80;;;;;;;;;;527368;28;835;-82
2022/06/21 00:35:02;;;;;;;14.73;12.70;;;;;;;;;;528123;28;1691;-82
2022/06/21 00:35:20;;;;;;;14.15;12.68;;;;;;;;;;526642;28;1482;-82
2022/06/21 00:35:36;;;;;;;14.55;12.63;;;;;;;;;;524132;28;1445;-82
2022/06/21 00:35:55;;;;;;;13.70;12.25;;;;;;;;;;525713;28;1662;-82
2022/06/21 00:36:23;;;;;;;13.10;11.70;;;;;;;;;;524053;28;1618;-82
2022/06/21 00:36:38;;;;;;;14.25;12.75;;;;;;;;;;522292;28;1310;-82
2022/06/21 00:36:56;;;;;;;13.90;12.50;;;;;;;;;;523294;28;1476;-82
2022/06/21 00:37:21;;;;;;;14.10;12.60;;;;;;;;;;522369;28;1346;-82
2022/06/21 00:37:36;;;;;;;13.48;12.10;;;;;;;;;;524244;28;836;-82
2022/06/21 00:37:53;;;;;;;13.20;11.90;;;;;;;;;;523767;28;1576;-82
2022/06/21 00:38:12;;;;;;;13.00;11.65;;;;;;;;;;524778;28;1093;-82
2022/06/21 00:38:34;;;;;;;13.00;11.70;;;;;;;;;;526439;28;1537;-82
2022/06/21 00:38:51;;;;;;;13.50;12.10;;;;;;;;;;524558;28;1369;-82
2022/06/21 00:39:10;;;;;;;13.93;12.53;;;;;;;;;;524940;28;903;-82
2022/06/21 00:39:25;;;;;;;13.88;12.45;;;;;;;;;;525198;28;1551;-82
2022/06/21 00:39:41;;;;;;;13.10;11.77;;;;;;;;;;526002;28;1608;-82
2022/06/21 00:39:56;;;;;;;12.57;11.27;;;;;;;;;;525202;28;1345;-82
2022/06/21 00:40:27;;;;;;;13.10;11.57;;;;;;;;;;525946;28;1520;-82
2022/06/21 00:40:42;;;;;;;13.68;12.30;;;;;;;;;;527957;28;1813;-82
2022/06/21 00:41:03;;;;;;;12.90;11.60;;;;;;;;;;529563;27;1514;-82
2022/06/21 00:41:25;;;;;;;13.07;11.68;;;;;;;;;;528452;28;1030;-83
2022/06/21 00:41:40;;;;;;;12.85;11.60;;;;;;;;;;525251;28;1602;-82
2022/06/21 00:42:14;;;;;;;12.93;11.60;;;;;;;;;;526553;28;1511;-82
2022/06/21 00:42:31;;;;;;;13.23;11.70;;;;;;;;;;522430;28;904;-82
2022/06/21 00:42:53;;;;;;;12.98;11.35;;;;;;;;;;525948;28;1278;-83
2022/06/21 00:43:17;;;;;;;12.85;11.20;;;;;;;;;;523620;28;1694;-82
2022/06/21 00:43:38;;;;;;;12.50;11.20;;;;;;;;;;524536;28;1231;-82
2022/06/21 00:43:54;;;;;;;11.57;10.40;;;;;;;;;;524805;28;1488;-82
2022/06/21 00:44:31;;;;;;;11.93;10.73;;;;;;;;;;522266;28;1405;-82
2022/06/21 00:44:59;;;;;;;12.43;11.00;;;;;;;;;;524569;28;1342;-82
2022/06/21 00:45:32;;;;;;;13.55;11.20;;;;;;;;;;524132;28;1631;-82
2022/06/21 00:45:49;;;;;;;12.10;10.80;;;;;;;;;;523947;28;1603;-82
2022/06/21 00:46:36;;;;;;;12.40;10.75;;;;;;;;;;526503;28;1575;-82
2022/06/21 00:47:00;;;;;;;14.00;10.20;;;;;;;;;;526106;28;1429;-82
2022/06/21 00:47:23;;;;;;;11.63;10.55;;;;;;;;;;529978;27;1396;-82
2022/06/21 00:47:51;;;;;;;11.30;10.20;;;;;;;;;;526797;28;1488;-82
2022/06/21 00:48:23;;;;;;;13.75;10.65;;;;;;;;;;528201;28;1586;-82
2022/06/21 00:48:42;;;;;;;12.13;10.30;;;;;;;;;;527822;28;1821;-82
2022/06/21 00:48:58;;;;;;;12.02;10.57;;;;;;;;;;526523;28;1614;-82
2022/06/21 00:49:22;;;;;;;12.60;11.30;;;;;;;;;;526210;28;1562;-82
2022/06/21 00:49:51;;;;;;;13.40;11.40;;;;;;;;;;525379;28;1395;-82
2022/06/21 00:50:26;;;;;;;13.90;11.40;;;;;;;;;;525618;28;1622;-82
2022/06/21 00:50:45;;;;;;;13.07;11.35;;;;;;;;;;524502;28;1675;-82
2022/06/21 00:51:08;;;;;;;13.05;11.15;;;;;;;;;;523767;28;1306;-82
2022/06/21 00:51:38;;;;;;;14.52;11.50;;;;;;;;;;522875;28;1623;-82
2022/06/21 00:52:01;;;;;;;13.18;11.38;;;;;;;;;;523467;28;1362;-82
2022/06/21 00:52:54;;;;;;;13.73;12.02;;;;;;;;;;523605;28;1524;-82
2022/06/21 00:53:26;;;;;;;13.88;12.40;;;;;;;;;;520966;28;864;-82
2022/06/21 00:53:45;;;;;;;14.10;12.00;;;;;;;;;;516956;28;1779;-82
2022/06/21 00:54:10;;;;;;;13.57;12.10;;;;;;;;;;516016;28;1621;-82
2022/06/21 00:54:38;;;;;;;14.70;12.55;;;;;;;;;;520601;28;1445;-82
2022/06/21 00:54:59;;;;;;;14.90;12.65;;;;;;;;;;525515;28;816;-84
2022/06/21 00:55:32;;;;;;;14.20;12.38;;;;;;;;;;527005;28;1344;-82
2022/06/21 00:55:50;;;;;;;13.25;12.05;;;;;;;;;;527512;28;1432;-82
2022/06/21 00:56:23;;;;;;;13.60;12.20;;;;;;;;;;524460;28;1489;-82
2022/06/21 00:56:51;;;;;;;14.30;12.80;;;;;;;;;;524721;28;1357;-83
2022/06/21 00:57:13;;;;;;;14.85;13.25;;;;;;;;;;523027;28;1175;-82
2022/06/21 00:57:36;;;;;;;13.43;12.00;;;;;;;;;;521004;28;1330;-82
2022/06/21 00:57:54;;;;;;;13.68;12.27;;;;;;;;;;522880;28;1220;-82
2022/06/21 00:58:13;;;;;;;13.55;12.00;;;;;;;;;;523643;28;1454;-82
2022/06/21 00:58:30;;;;;;;13.63;12.10;;;;;;;;;;522552;28;1729;-83
2022/06/21 00:58:46;;;;;;;13.00;11.70;;;;;;;;;;523487;28;1417;-82
2022/06/21 00:59:22;;;;;;;12.85;11.55;;;;;;;;;;524249;28;1537;-82
2022/06/21 00:59:38;;;;;;;14.85;12.70;;;;;;;;;;524625;28;1355;-82
2022/06/21 00:59:56;;;;;;;14.85;12.60;;;;;;;;;;523458;28;1477;-82
2022/06/21 01:00:37;;;;;;;16.23;12.68;;;;;;;;;;522041;28;931;-82
2022/06/21 01:00:58;;;;;;;14.43;12.40;;;;;;;;;;524476;28;1393;-84
2022/06/21 01:01:17;;;;;;;15.05;12.30;;;;;;;;;;525019;28;1394;-82
2022/06/21 01:01:33;;;;;;;14.07;12.52;;;;;;;;;;525025;28;1516;-83
2022/06/21 01:01:50;;;;;;;13.77;12.38;;;;;;;;;;526303;28;1621;-82
2022/06/21 01:02:17;;;;;;;13.98;12.30;;;;;;;;;;528612;27;1819;-82
2022/06/21 01:02:35;;;;;;;15.45;12.90;;;;;;;;;;529028;27;1620;-82
2022/06/21 01:02:51;;;;;;;16.25;13.15;;;;;;;;;;530394;27;986;-82
2022/06/21 01:03:12;;;;;;;16.73;13.47;;;;;;;;;;526795;28;1704;-82
2022/06/21 01:03:35;;;;;;;14.93;13.23;;;;;;;;;;526161;28;1579;-82
2022/06/21 01:03:55;;;;;;;15.65;13.45;;;;;;;;;;530262;27;1521;-82
2022/06/21 01:04:29;;;;;;;16.35;13.80;;;;;;;;;;529126;27;1524;-82
2022/06/21 01:04:49;;;;;;;15.20;13.60;;;;;;;;;;526580;28;864;-81
2022/06/21 01:05:04;;;;;;;15.20;13.63;;;;;;;;;;527646;27;1396;-82
2022/06/21 01:05:22;;;;;;;15.02;13.48;;;;;;;;;;529176;27;1394;-83
2022/06/21 01:05:42;;;;;;;16.95;13.73;;;;;;;;;;529995;27;930;-82
2022/06/21 01:06:05;;;;;;;16.90;13.63;;;;;;;;;;526898;28;1830;-82
2022/06/21 01:06:35;;;;;;;15.05;13.15;;;;;;;;;;528305;27;1495;-82
2022/06/21 01:06:55;;;;;;;15.05;13.48;;;;;;;;;;529929;27;1448;-82
2022/06/21 01:07:11;;;;;;;17.15;14.02;;;;;;;;;;528147;28;1432;-82
2022/06/21 01:07:27;;;;;;;17.52;14.65;;;;;;;;;;528816;27;1368;-82
2022/06/21 01:07:43;;;;;;;16.98;14.98;;;;;;;;;;529678;27;1528;-82
2022/06/21 01:08:00;;;;;;;18.90;14.75;;;;;;;;;;527301;28;1408;-82
2022/06/21 01:08:20;;;;;;;19.73;14.63;;;;;;;;;;526776;28;1336;-82
2022/06/21 01:08:40;;;;;;;20.33;15.07;;;;;;;;;;526873;28;1475;-82
2022/06/21 01:09:00;;;;;;;20.33;15.45;;;;;;;;;;525284;28;1528;-82
2022/06/21 01:09:23;;;;;;;16.83;15.10;;;;;;;;;;525442;28;1449;-82
2022/06/21 01:09:54;;;;;;;17.67;15.05;;;;;;;;;;525873;28;1691;-82
2022/06/21 01:10:14;;;;;;;16.27;14.57;;;;;;;;;;525826;28;1601;-82
2022/06/21 01:10:30;;;;;;;16.58;14.60;;;;;;;;;;526187;28;1293;-82
2022/06/21 01:10:51;;;;;;;16.38;14.68;;;;;;;;;;524607;28;1452;-82
2022/06/21 01:11:14;;;;;;;16.60;14.82;;;;;;;;;;522327;28;1279;-82
2022/06/21 01:11:37;;;;;;;16.63;14.38;;;;;;;;;;522855;28;1406;-82
2022/06/21 01:12:02;;;;;;;17.33;14.70;;;;;;;;;;522188;28;1423;-82
2022/06/21 01:12:24;;;;;;;17.33;15.18;;;;;;;;;;522999;28;1428;-82
2022/06/21 01:12:48;;;;;;;19.60;14.93;;;;;;;;;;521750;28;1519;-83
2022/06/21 01:13:10;;;;;;;17.40;14.20;;;;;;;;;;523686;28;1410;-82
2022/06/21 01:13:29;;;;;;;15.88;14.27;;;;;;;;;;524745;28;1550;-82
2022/06/21 01:13:49;;;;;;;17.88;14.70;;;;;;;;;;526576;28;1541;-82
2022/06/21 01:14:05;;;;;;;16.47;14.30;;;;;;;;;;525264;28;1641;-82
2022/06/21 01:14:23;;;;;;;15.43;13.67;;;;;;;;;;523846;28;1345;-82
2022/06/21 01:14:55;;;;;;;16.52;13.80;;;;;;;;;;522260;28;1606;-82
2022/06/21 01:15:18;;;;;;;19.20;14.05;;;;;;;;;;524185;28;1507;-82
2022/06/21 01:15:37;;;;;;;15.90;14.10;;;;;;;;;;526028;28;1408;-82
2022/06/21 01:15:53;;;;;;;;;;;;;;;;;;522576;28;1486;-82
2022/06/21 01:16:09;;;;;;;17.60;14.10;;;;;;;;;;526722;28;824;-82
2022/06/21 01:16:26;;;;;;;17.02;13.70;;;;;;;;;;527572;28;1910;-82
2022/06/21 01:16:43;;;;;;;17.73;13.77;;;;;;;;;;525435;28;1195;-82
2022/06/21 01:16:59;;;;;;;16.70;14.05;;;;;;;;;;521575;28;1805;-82
2022/06/21 01:17:17;;;;;;;18.23;13.83;;;;;;;;;;522907;28;1594;-82
2022/06/21 01:17:35;;;;;;;21.52;13.65;;;;;;;;;;523417;28;1569;-82
2022/06/21 01:17:55;;;;;;;15.38;13.77;;;;;;;;;;522190;28;1577;-82
2022/06/21 01:18:14;;;;;;;15.75;13.98;;;;;;;;;;521302;28;1576;-82
2022/06/21 01:18:30;;;;;;;15.50;13.90;;;;;;;;;;523275;28;1415;-82
2022/06/21 01:18:46;;;;;;;14.85;13.35;;;;;;;;;;525278;28;1298;-82
2022/06/21 01:19:07;;;;;;;14.82;13.40;;;;;;;;;;526459;28;1496;-84
2022/06/21 01:19:37;;;;;;;14.68;13.20;;;;;;;;;;525173;28;1328;-83
2022/06/21 01:20:01;;;;;;;15.55;13.85;;;;;;;;;;524434;28;1635;-82
2022/06/21 01:20:23;;;;;;;16.52;13.82;;;;;;;;;;523988;28;1502;-82
2022/06/21 01:20:43;;;;;;;15.35;13.70;;;;;;;;;;526644;28;1488;-82
2022/06/21 01:21:00;;;;;;;14.95;13.45;;;;;;;;;;524086;28;1772;-82
2022/06/21 01:21:18;;;;;;;15.05;13.65;;;;;;;;;;522367;28;1689;-82
2022/06/21 01:21:35;;;;;;;15.90;14.20;;;;;;;;;;522832;28;825;-82
2022/06/21 01:21:57;;;;;;;16.70;14.40;;;;;;;;;;522367;28;917;-82
2022/06/21 01:22:50;;;;;;;19.73;14.20;;;;;;;;;;521505;28;1426;-82
2022/06/21 01:23:24;;;;;;;18.90;14.43;;;;;;;;;;518684;28;1428;-82
2022/06/21 01:23:52;;;;;;;16.27;14.57;;;;;;;;;;528074;28;1596;-82
2022/06/21 01:24:25;;;;;;;16.13;14.43;;;;;;;;;;528833;28;1589;-82
2022/06/21 01:24:58;;;;;;;16.60;14.82;;;;;;;;;;528962;27;1423;-82
2022/06/21 01:25:38;;;;;;;16.52;14.63;;;;;;;;;;528563;27;1587;-82
2022/06/21 01:26:13;;;;;;;17.15;14.88;;;;;;;;;;528205;27;1593;-82
2022/06/21 01:26:35;;;;;;;15.65;14.07;;;;;;;;;;527391;27;1517;-82
2022/06/21 01:26:58;;;;;;;15.95;14.35;;;;;;;;;;529190;27;1775;-82
2022/06/21 01:27:13;;;;;;;15.90;14.30;;;;;;;;;;527528;28;1747;-82
2022/06/21 01:27:29;;;;;;;15.85;14.25;;;;;;;;;;528439;28;828;-82
2022/06/21 01:27:45;;;;;;;15.93;14.32;;;;;;;;;;525722;28;1189;-82
2022/06/21 01:28:01;;;;;;;16.30;14.63;;;;;;;;;;524337;28;896;-82
2022/06/21 01:28:17;;;;;;;17.10;15.30;;;;;;;;;;521723;28;1505;-82
2022/06/21 01:28:33;;;;;;;16.90;15.10;;;;;;;;;;522499;28;1452;-82
2022/06/21 01:28:51;;;;;;;15.88;14.27;;;;;;;;;;522192;28;1741;-83
2022/06/21 01:29:10;;;;;;;16.45;14.20;;;;;;;;;;522301;28;1507;-82
2022/06/21 01:29:30;;;;;;;16.35;14.68;;;;;;;;;;524204;28;1360;-82
2022/06/21 01:29:46;;;;;;;16.25;14.55;;;;;;;;;;524728;28;1606;-82
2022/06/21 01:30:03;;;;;;;16.27;14.50;;;;;;;;;;524196;28;1501;-82
2022/06/21 01:30:19;;;;;;;16.90;15.10;;;;;;;;;;522546;28;1497;-82
2022/06/21 01:30:35;;;;;;;16.73;15.03;;;;;;;;;;520028;28;1498;-82
2022/06/21 01:30:53;;;;;;;17.75;15.02;;;;;;;;;;519629;28;1596;-82
2022/06/21 01:31:09;;;;;;;17.83;15.18;;;;;;;;;;518719;28;904;-82
2022/06/21 01:31:25;;;;;;;16.90;15.20;;;;;;;;;;520452;28;1549;-82
2022/06/21 01:31:41;;;;;;;16.35;14.63;;;;;;;;;;521596;28;1513;-82
2022/06/21 01:32:01;;;;;;;15.82;14.23;;;;;;;;;;521224;28;1629;-82
2022/06/21 01:32:17;;;;;;;15.90;14.30;;;;;;;;;;518537;28;1414;-82
2022/06/21 01:32:32;;;;;;;16.07;14.40;;;;;;;;;;521637;28;1521;-82
2022/06/21 01:32:49;;;;;;;15.82;14.25;;;;;;;;;;523739;28;1492;-82
2022/06/21 01:33:06;;;;;;;15.52;14.07;;;;;;;;;;521772;28;1552;-82
2022/06/21 01:33:30;;;;;;;15.43;13.93;;;;;;;;;;523393;28;1553;-82
2022/06/21 01:33:46;;;;;;;15.23;13.73;;;;;;;;;;522016;28;1025;-83
2022/06/21 01:34:01;;;;;;;15.23;13.70;;;;;;;;;;524841;28;1357;-82
2022/06/21 01:34:20;;;;;;;15.50;13.98;;;;;;;;;;528252;28;903;-82
2022/06/21 01:34:35;;;;;;;15.95;14.00;;;;;;;;;;523083;28;1658;-82
2022/06/21 01:34:51;;;;;;;16.05;14.30;;;;;;;;;;524573;28;1699;-82
2022/06/21 01:35:14;;;;;;;16.02;14.35;;;;;;;;;;524555;28;1480;-82
2022/06/21 01:35:51;;;;;;;15.88;14.18;;;;;;;;;;524873;28;1279;-82
2022/06/21 01:36:13;;;;;;;15.40;13.82;;;;;;;;;;523763;28;1378;-82
2022/06/21 01:36:33;;;;;;;15.63;13.98;;;;;;;;;;525289;28;1910;-82
2022/06/21 01:36:54;;;;;;;15.73;14.13;;;;;;;;;;524412;28;1601;-82
2022/06/21 01:37:24;;;;;;;15.30;13.80;;;;;;;;;;522230;28;1613;-82
2022/06/21 01:37:40;;;;;;;16.05;14.45;;;;;;;;;;522219;28;1536;-82
2022/06/21 01:37:57;;;;;;;15.63;14.10;;;;;;;;;;522850;28;1002;-82
2022/06/21 01:38:19;;;;;;;15.35;13.88;;;;;;;;;;522411;28;1572;-82
2022/06/21 01:38:41;;;;;;;16.05;14.35;;;;;;;;;;523467;28;1430;-82
2022/06/21 01:39:07;;;;;;;15.88;14.27;;;;;;;;;;522755;28;1470;-82
2022/06/21 01:39:27;;;;;;;16.80;15.05;;;;;;;;;;522026;28;1374;-82
2022/06/21 01:39:51;;;;;;;16.02;14.50;;;;;;;;;;523934;28;1634;-82
2022/06/21 01:40:15;;;;;;;16.45;14.65;;;;;;;;;;522922;28;1595;-82
2022/06/21 01:40:35;;;;;;;17.00;14.95;;;;;;;;;;523187;28;1342;-83
2022/06/21 01:40:56;;;;;;;16.35;14.57;;;;;;;;;;525040;28;1317;-82
2022/06/21 01:41:16;;;;;;;15.85;14.20;;;;;;;;;;524848;28;1057;-82
2022/06/21 01:41:42;;;;;;;15.75;14.05;;;;;;;;;;526656;28;1487;-83
2022/06/21 01:42:05;;;;;;;15.48;13.98;;;;;;;;;;525387;28;1421;-83
2022/06/21 01:42:47;;;;;;;15.25;13.70;;;;;;;;;;522245;28;1430;-82
2022/06/21 01:43:11;;;;;;;16.45;14.85;;;;;;;;;;522246;28;1393;-82
2022/06/21 01:43:31;;;;;;;16.27;14.63;;;;;;;;;;522621;28;1630;-82
2022/06/21 01:43:48;;;;;;;16.27;14.57;;;;;;;;;;525927;28;1364;-82
2022/06/21 01:44:09;;;;;;;16.75;15.05;;;;;;;;;;523538;28;1709;-82
2022/06/21 01:44:29;;;;;;;16.38;14.77;;;;;;;;;;525654;28;1516;-82
2022/06/21 01:44:52;;;;;;;16.35;14.80;;;;;;;;;;526496;28;1516;-82
2022/06/21 01:45:12;;;;;;;16.58;14.90;;;;;;;;;;528962;27;2115;-83
2022/06/21 01:45:33;;;;;;;18.83;15.25;;;;;;;;;;527473;28;1554;-82
2022/06/21 01:45:57;;;;;;;17.48;14.85;;;;;;;;;;530540;27;1334;-82
2022/06/21 01:46:17;;;;;;;16.83;14.70;;;;;;;;;;530101;27;1335;-82
2022/06/21 01:46:32;;;;;;;17.75;14.70;;;;;;;;;;526703;28;1663;-82
2022/06/21 01:46:48;;;;;;;17.20;14.90;;;;;;;;;;528804;27;1785;-82
2022/06/21 01:47:08;;;;;;;17.05;14.98;;;;;;;;;;528200;28;1439;-82
2022/06/21 01:47:36;;;;;;;19.10;15.00;;;;;;;;;;527710;28;1317;-82
2022/06/21 01:48:00;;;;;;;16.73;14.95;;;;;;;;;;527670;28;1465;-82
2022/06/21 01:48:29;;;;;;;15.20;13.70;;;;;;;;;;524453;28;1828;-82
2022/06/21 01:48:55;;;;;;;17.17;15.35;;;;;;;;;;527602;28;1428;-82
2022/06/21 01:49:17;;;;;;;16.63;14.82;;;;;;;;;;529135;27;1438;-82
2022/06/21 01:49:36;;;;;;;17.60;14.85;;;;;;;;;;528133;27;1515;-82
2022/06/21 01:49:59;;;;;;;16.48;14.88;;;;;;;;;;529168;27;1378;-82
2022/06/21 01:50:15;;;;;;;19.58;15.05;;;;;;;;;;525008;28;1590;-82
2022/06/21 01:50:33;;;;;;;20.65;15.68;;;;;;;;;;528080;28;1582;-82
2022/06/21 01:50:53;;;;;;;16.58;14.88;;;;;;;;;;527107;28;1543;-82
2022/06/21 01:51:21;;;;;;;16.85;15.10;;;;;;;;;;525483;28;1556;-82
2022/06/21 01:51:43;;;;;;;17.10;15.30;;;;;;;;;;522795;28;1503;-82
2022/06/21 01:52:04;;;;;;;16.83;15.18;;;;;;;;;;526017;28;1368;-82
2022/06/21 01:52:22;;;;;;;17.15;15.35;;;;;;;;;;528091;28;1289;-82
2022/06/21 01:52:44;;;;;;;18.17;15.52;;;;;;;;;;524769;28;1645;-82
2022/06/21 01:53:01;;;;;;;19.80;15.70;;;;;;;;;;525875;28;1646;-82
2022/06/21 01:53:18;;;;;;;17.15;15.35;;;;;;;;;;527013;28;1450;-82
2022/06/21 01:53:36;;;;;;;17.23;15.43;;;;;;;;;;525804;28;1497;-82
2022/06/21 01:53:54;;;;;;;16.75;15.05;;;;;;;;;;526388;28;1227;-82
2022/06/21 01:54:13;;;;;;;16.35;14.75;;;;;;;;;;525090;28;1929;-82
2022/06/21 01:54:35;;;;;;;16.98;15.27;;;;;;;;;;524763;28;1595;-82
2022/06/21 01:54:56;;;;;;;16.83;15.07;;;;;;;;;;521766;28;1516;-82
2022/06/21 01:55:18;;;;;;;17.73;15.10;;;;;;;;;;522172;28;933;-82
2022/06/21 01:55:43;;;;;;;17.08;15.38;;;;;;;;;;520948;28;916;-82
2022/06/21 01:56:05;;;;;;;17.88;15.95;;;;;;;;;;523815;28;911;-82
2022/06/21 01:56:23;;;;;;;17.98;15.95;;;;;;;;;;521040;28;2000;-82
2022/06/21 01:56:41;;;;;;;17.48;15.68;;;;;;;;;;523892;28;1676;-83
2022/06/21 01:56:56;;;;;;;17.35;15.57;;;;;;;;;;522934;28;1709;-82
2022/06/21 01:57:13;;;;;;;17.67;15.77;;;;;;;;;;520097;28;1317;-82
2022/06/21 01:57:30;;;;;;;18.25;16.25;;;;;;;;;;523713;28;1030;-82
2022/06/21 01:57:49;;;;;;;17.80;15.82;;;;;;;;;;525891;28;1452;-82
2022/06/21 01:58:06;;;;;;;18.52;15.85;;;;;;;;;;522086;28;1564;-82
2022/06/21 01:58:27;;;;;;;17.77;15.80;;;;;;;;;;522060;28;1724;-82
2022/06/21 01:58:50;;;;;;;18.05;15.10;;;;;;;;;;524444;28;871;-82
2022/06/21 01:59:17;;;;;;;19.23;15.90;;;;;;;;;;524750;28;1246;-82
2022/06/21 01:59:37;;;;;;;18.95;15.57;;;;;;;;;;524524;28;1587;-82
2022/06/21 01:59:53;;;;;;;16.98;15.38;;;;;;;;;;524782;28;1539;-82
2022/06/21 02:00:09;;;;;;;17.58;15.88;;;;;;;;;;528144;28;1446;-82
2022/06/21 02:00:25;;;;;;;17.52;15.80;;;;;;;;;;529826;27;1592;-82
2022/06/21 02:00:48;;;;;;;17.30;15.40;;;;;;;;;;526479;28;1400;-82
2022/06/21 02:01:15;;;;;;;17.15;15.40;;;;;;;;;;524991;28;1432;-82
2022/06/21 02:01:44;;;;;;;16.70;15.05;;;;;;;;;;521902;28;1672;-82